Diamond Lake, Oregon
Current Conditions -  °F | °C
As of 4:53 PM on Monday 24 Nov 2014 (Local Time) from KLMT Reporting Station
Clear Clear  
Wind Chill: 40°   Ceiling: Unl
Heat Index: 40°   Visibility: 10mi
Dew Point: 30°   Wind: 3mph
Humidity: 68%   Direction: 110°ESE
Pressure: 30.39"   Gusts: NA
Location:  43.0567°N, 121.852°W
Report Text: KLMT 250053Z 11003KT 10SM CLR 04/M01 A3039 RMK AO2 SLP310 T00441011
Loading
Personal Weather Stations






























Interactive Weather Map New forecast layout! Learn more

10-Day Weather Forecast

Advertisements
Track Severe Weather on mobile